Time;durP1;ratioP1;P1;durP2;ratioP2;P2;SDS_P1;SDS_P2;PMS_P1;PMS_P2;Temp;Humidity;BMP_temperature;BMP_pressure;BME280_temperature;BME280_humidity;BME280_pressure;Samples;Min_cycle;Max_cycle;Signal;HPM_P1;HPM_P2
2021/11/24 00:01:22;;;;;;;22.15;12.95;;;-0.70;74.60;;;;;;5075772;28;20035;-75
2021/11/24 00:03:48;;;;;;;25.05;14.38;;;-0.80;75.00;;;;;;5093201;28;20029;-75
2021/11/24 00:06:14;;;;;;;23.65;13.77;;;-0.80;74.00;;;;;;5093826;28;20499;-75
2021/11/24 00:08:40;;;;;;;22.90;12.93;;;-0.80;73.80;;;;;;5075570;28;20024;-75
2021/11/24 00:11:05;;;;;;;28.42;13.80;;;-0.80;73.60;;;;;;5075437;28;20024;-76
2021/11/24 00:13:31;;;;;;;23.25;13.20;;;-0.90;73.60;;;;;;5058755;28;20564;-76
2021/11/24 00:15:57;;;;;;;21.30;12.98;;;-0.90;73.70;;;;;;5075454;28;20519;-76
2021/11/24 00:18:22;;;;;;;24.67;13.45;;;-0.90;73.70;;;;;;5075524;28;20027;-76
2021/11/24 00:20:48;;;;;;;26.15;13.82;;;-0.90;73.60;;;;;;5075352;28;20024;-76
2021/11/24 00:23:14;;;;;;;25.48;14.57;;;-0.90;73.60;;;;;;5091820;28;20519;-76
2021/11/24 00:25:40;;;;;;;24.90;13.82;;;-1.00;73.90;;;;;;5093579;28;20035;-76
2021/11/24 00:28:05;;;;;;;31.67;16.80;;;-1.10;73.90;;;;;;5093582;28;20020;-76
2021/11/24 00:30:31;;;;;;;26.48;14.27;;;-1.20;73.60;;;;;;5075322;28;20063;-75
2021/11/24 00:32:57;;;;;;;29.20;14.93;;;-1.30;73.70;;;;;;5075485;28;20058;-76
2021/11/24 00:35:23;;;;;;;23.17;13.85;;;-1.30;74.10;;;;;;5075283;28;20044;-76
2021/11/24 00:37:50;;;;;;;26.00;14.43;;;-1.20;74.20;;;;;;5075029;28;20016;-75
2021/11/24 00:40:16;;;;;;;24.52;13.23;;;-1.20;74.40;;;;;;5075034;28;20114;-76
2021/11/24 00:42:43;;;;;;;22.90;13.13;;;-1.10;74.30;;;;;;5075154;28;20063;-75
2021/11/24 00:45:09;;;;;;;24.30;14.00;;;-1.10;74.10;;;;;;5058520;28;20058;-75
2021/11/24 00:47:34;;;;;;;24.55;14.13;;;-1.00;74.10;;;;;;5074533;28;20716;-76
2021/11/24 00:50:00;;;;;;;23.45;14.57;;;-0.90;74.20;;;;;;5074901;28;20412;-76
2021/11/24 00:52:28;;;;;;;23.55;13.43;;;-0.90;73.80;;;;;;5074943;28;20024;-76
2021/11/24 00:54:55;;;;;;;24.35;14.02;;;-0.90;73.60;;;;;;5058655;28;20028;-76
2021/11/24 00:57:20;;;;;;;24.73;14.25;;;-0.90;73.30;;;;;;5074786;28;20028;-76
2021/11/24 00:59:46;;;;;;;26.65;14.95;;;-0.90;73.00;;;;;;5093111;28;20537;-76
2021/11/24 01:02:12;;;;;;;25.42;14.05;;;-0.90;72.70;;;;;;5074963;28;20032;-76
2021/11/24 01:04:38;;;;;;;22.92;14.18;;;-0.90;72.50;;;;;;5075128;28;20107;-76
2021/11/24 01:07:06;;;;;;;23.45;13.48;;;-0.90;72.40;;;;;;5074726;28;20024;-76
2021/11/24 01:09:34;;;;;;;24.40;13.30;;;-0.90;72.30;;;;;;5092831;28;20028;-76
2021/11/24 01:12:01;;;;;;;27.17;13.07;;;-0.90;72.30;;;;;;5057517;28;20500;-76
2021/11/24 01:14:27;;;;;;;25.63;13.95;;;-0.90;72.40;;;;;;5057897;28;20031;-76
2021/11/24 01:16:52;;;;;;;23.77;13.82;;;-0.90;73.20;;;;;;5074750;28;20048;-76
2021/11/24 01:19:19;;;;;;;24.27;14.13;;;-1.00;72.20;;;;;;5074866;28;20076;-76
2021/11/24 01:21:46;;;;;;;26.20;14.50;;;-1.00;72.40;;;;;;5074041;28;20046;-76
2021/11/24 01:24:12;;;;;;;27.25;14.50;;;-1.00;72.40;;;;;;5074735;28;20028;-76
2021/11/24 01:26:40;;;;;;;26.48;14.93;;;-1.00;72.50;;;;;;5074641;28;20028;-76
2021/11/24 01:29:06;;;;;;;27.27;14.85;;;-0.90;73.40;;;;;;5074075;28;20024;-76
2021/11/24 01:31:33;;;;;;;31.70;16.17;;;-1.00;72.60;;;;;;5092045;28;20573;-75
2021/11/24 01:34:00;;;;;;;28.98;16.40;;;-1.00;72.40;;;;;;5092503;28;20024;-75
2021/11/24 01:36:26;;;;;;;28.90;15.68;;;-0.90;72.60;;;;;;5058081;28;20089;-76
2021/11/24 01:38:52;;;;;;;31.00;15.65;;;-1.00;72.60;;;;;;5092781;28;20027;-75
2021/11/24 01:41:18;;;;;;;27.50;15.43;;;-1.00;72.90;;;;;;5074756;28;20028;-75
2021/11/24 01:43:47;;;;;;;33.92;18.77;;;-1.00;73.20;;;;;;5074703;28;20024;-76
2021/11/24 01:46:12;;;;;;;36.05;18.40;;;-1.00;73.10;;;;;;5074583;28;20043;-75
2021/11/24 01:48:39;;;;;;;39.53;19.40;;;-1.00;73.50;;;;;;5074603;28;20059;-76
2021/11/24 01:51:04;;;;;;;37.75;19.80;;;-1.10;74.20;;;;;;5057709;28;20024;-76
2021/11/24 01:53:30;;;;;;;41.60;19.95;;;-1.10;74.80;;;;;;5092604;28;20028;-75
2021/11/24 01:56:00;;;;;;;37.13;18.02;;;-1.10;75.40;;;;;;5074560;28;20059;-75
2021/11/24 01:58:28;;;;;;;41.63;20.20;;;-1.10;76.10;;;;;;5075138;28;20534;-76
2021/11/24 02:00:57;;;;;;;40.42;20.33;;;-1.10;77.00;;;;;;5096213;28;20232;-76
2021/11/24 02:03:24;;;;;;;39.17;18.58;;;-1.10;77.40;;;;;;5096400;28;20085;-75
2021/11/24 02:05:52;;;;;;;43.75;19.75;;;-1.00;77.70;;;;;;5077442;28;20476;-75
2021/11/24 02:08:17;;;;;;;36.78;18.75;;;-1.00;78.20;;;;;;5077887;28;20444;-75
2021/11/24 02:10:45;;;;;;;39.83;18.10;;;-1.00;78.30;;;;;;5095363;28;20151;-76
2021/11/24 02:13:10;;;;;;;32.10;16.42;;;-0.90;78.50;;;;;;5078143;28;20020;-74
2021/11/24 02:15:36;;;;;;;33.00;17.00;;;-0.90;78.10;;;;;;5077867;28;20036;-76
2021/11/24 02:18:04;;;;;;;36.05;17.77;;;-0.80;77.60;;;;;;5077831;28;20101;-75
2021/11/24 02:20:37;;;;;;;30.73;15.65;;;-0.80;77.20;;;;;;5077335;28;20062;-75
2021/11/24 02:23:05;;;;;;;31.98;15.98;;;-0.70;76.90;;;;;;5074295;28;20111;-76
2021/11/24 02:25:31;;;;;;;33.78;17.13;;;-0.70;76.30;;;;;;5074607;28;20024;-76
2021/11/24 02:27:58;;;;;;;37.47;19.00;;;-0.70;76.10;;;;;;5075462;28;20082;-76
2021/11/24 02:30:24;;;;;;;40.20;18.80;;;-0.60;76.20;;;;;;5076799;28;20020;-76
2021/11/24 02:32:49;;;;;;;39.45;18.13;;;-0.60;76.40;;;;;;5076408;28;20046;-76
2021/11/24 02:35:15;;;;;;;41.75;17.77;;;-0.60;76.30;;;;;;5077017;28;20047;-76
2021/11/24 02:37:42;;;;;;;38.38;17.98;;;-0.60;76.40;;;;;;5074413;28;20602;-76
2021/11/24 02:40:08;;;;;;;40.92;19.23;;;-0.60;76.50;;;;;;5074542;28;20029;-75
2021/11/24 02:42:38;;;;;;;43.85;19.60;;;-0.60;76.70;;;;;;5074190;28;20484;-75
2021/11/24 02:45:04;;;;;;;36.83;19.15;;;-0.60;77.80;;;;;;5074134;28;20090;-75
2021/11/24 02:47:31;;;;;;;41.47;19.17;;;-0.60;77.20;;;;;;5073573;28;20044;-76
2021/11/24 02:50:03;;;;;;;45.47;20.48;;;-0.60;77.60;;;;;;5074157;28;20066;-75
2021/11/24 02:52:30;;;;;;;50.25;22.25;;;-0.60;78.00;;;;;;5057963;28;20489;-77
2021/11/24 02:55:00;;;;;;;42.03;20.00;;;-0.60;78.60;;;;;;5073865;28;20511;-76
2021/11/24 02:57:48;;;;;;;41.47;19.65;;;-0.60;79.10;;;;;;5075419;28;20493;-76
2021/11/24 03:00:28;;;;;;;48.20;21.25;;;-0.60;79.70;;;;;;5073894;28;20485;-76
2021/11/24 03:02:55;;;;;;;43.63;21.95;;;-0.60;80.10;;;;;;5073988;28;20043;-76
2021/11/24 03:05:23;;;;;;;40.25;19.52;;;-0.60;80.40;;;;;;5073525;28;20048;-76
2021/11/24 03:07:54;;;;;;;38.88;18.50;;;-0.60;81.20;;;;;;5073948;28;20028;-76
2021/11/24 03:10:20;;;;;;;49.60;21.77;;;-0.60;81.30;;;;;;5072540;28;20112;-76
2021/11/24 03:12:45;;;;;;;42.60;20.35;;;-0.60;81.60;;;;;;5075097;28;20100;-76
2021/11/24 03:15:12;;;;;;;31.58;16.92;;;-0.60;81.80;;;;;;5073296;28;20024;-76
2021/11/24 03:17:38;;;;;;;40.17;18.27;;;-0.60;81.80;;;;;;5057726;28;20047;-76
2021/11/24 03:20:07;;;;;;;68.00;21.17;;;-0.70;81.80;;;;;;5073531;28;20028;-76
2021/11/24 03:22:34;;;;;;;32.65;17.42;;;-0.70;82.10;;;;;;5060372;28;20044;-76
2021/11/24 03:25:03;;;;;;;40.92;18.23;;;-0.90;82.10;;;;;;5094975;28;20020;-76
2021/11/24 03:27:34;;;;;;;33.30;18.13;;;-1.10;82.50;;;;;;5076597;28;20031;-76
2021/11/24 03:30:04;;;;;;;31.80;17.27;;;-1.20;83.10;;;;;;5089411;28;20035;-76
2021/11/24 03:32:32;;;;;;;41.15;19.20;;;-1.10;83.40;;;;;;5076696;28;20059;-76
2021/11/24 03:34:58;;;;;;;31.75;17.13;;;-1.30;83.20;;;;;;5076696;28;20119;-76
2021/11/24 03:37:24;;;;;;;42.53;19.17;;;-1.20;83.60;;;;;;5076343;28;20052;-76
2021/11/24 03:39:50;;;;;;;37.92;19.33;;;-1.20;84.60;;;;;;5076633;28;20468;-76
2021/11/24 03:42:16;;;;;;;42.22;17.40;;;-1.20;83.60;;;;;;5076367;28;20028;-76
2021/11/24 03:44:43;;;;;;;37.92;18.50;;;-1.20;83.90;;;;;;5076488;28;20031;-77
2021/11/24 03:47:10;;;;;;;40.17;20.13;;;-1.10;84.00;;;;;;5076334;28;20022;-76
2021/11/24 03:49:36;;;;;;;35.28;18.80;;;-1.20;83.90;;;;;;5093962;28;20090;-76
2021/11/24 03:52:04;;;;;;;38.15;18.42;;;-1.10;84.40;;;;;;5076024;28;20059;-76
2021/11/24 03:54:30;;;;;;;47.80;19.73;;;-1.10;84.30;;;;;;5043410;28;20420;-76
2021/11/24 03:56:55;;;;;;;47.33;20.40;;;-1.00;84.30;;;;;;5075948;28;20024;-76
2021/11/24 03:59:21;;;;;;;33.92;18.05;;;-1.00;84.50;;;;;;5059212;28;20182;-76
2021/11/24 04:01:47;;;;;;;33.22;16.98;;;-0.90;84.30;;;;;;5075851;28;20020;-76
2021/11/24 04:04:14;;;;;;;33.83;18.35;;;-0.90;84.00;;;;;;5076220;28;20102;-76
2021/11/24 04:06:42;;;;;;;36.78;17.17;;;-0.90;83.70;;;;;;5059602;28;20050;-76
2021/11/24 04:09:09;;;;;;;32.53;17.50;;;-0.80;83.30;;;;;;5056645;28;20052;-76
2021/11/24 04:11:36;;;;;;;31.63;17.27;;;-0.80;82.90;;;;;;5059532;28;20032;-76
2021/11/24 04:14:02;;;;;;;33.00;17.23;;;-0.80;82.60;;;;;;5075874;28;20451;-76
2021/11/24 04:16:28;;;;;;;43.08;19.77;;;-0.80;82.30;;;;;;5075359;28;20086;-76
2021/11/24 04:18:54;;;;;;;41.42;19.45;;;-0.80;82.20;;;;;;5075807;28;20024;-77
2021/11/24 04:21:21;;;;;;;33.58;17.63;;;-0.80;82.30;;;;;;5075039;28;20058;-77
2021/11/24 04:23:48;;;;;;;43.70;20.85;;;-0.80;82.30;;;;;;5093739;28;20112;-76
2021/11/24 04:26:14;;;;;;;44.67;20.70;;;-0.90;82.10;;;;;;5058744;28;20039;-76
2021/11/24 04:28:41;;;;;;;40.08;19.02;;;-1.00;82.30;;;;;;5093599;28;20026;-76
2021/11/24 04:31:08;;;;;;;55.05;20.65;;;-1.00;83.00;;;;;;5058440;28;20463;-76
2021/11/24 04:33:36;;;;;;;35.30;18.83;;;-1.20;83.10;;;;;;5075368;28;20077;-77
2021/11/24 04:36:04;;;;;;;66.18;23.63;;;-1.20;83.30;;;;;;5093505;28;20034;-77
2021/11/24 04:38:30;;;;;;;34.17;18.23;;;-1.20;83.60;;;;;;5075293;28;20020;-77
2021/11/24 04:40:56;;;;;;;51.40;20.92;;;-1.30;83.70;;;;;;5075476;28;20098;-76
2021/11/24 04:43:27;;;;;;;39.75;19.05;;;-1.20;84.30;;;;;;5075062;28;20111;-77
2021/11/24 04:45:55;;;;;;;51.33;21.83;;;-1.20;84.40;;;;;;5075207;28;20020;-77
2021/11/24 04:48:22;;;;;;;49.33;22.42;;;-1.20;84.20;;;;;;5093391;28;20025;-77
2021/11/24 04:50:49;;;;;;;44.50;21.73;;;-1.40;84.60;;;;;;5058538;28;20032;-77
2021/11/24 04:53:16;;;;;;;49.85;24.15;;;-1.40;84.90;;;;;;5075306;28;20027;-76
2021/11/24 04:55:42;;;;;;;65.32;22.35;;;-1.30;85.50;;;;;;5058346;28;20046;-77
2021/11/24 04:58:07;;;;;;;41.08;20.27;;;-1.20;85.40;;;;;;5074840;28;20099;-76
2021/11/24 05:00:33;;;;;;;43.47;20.70;;;-1.10;85.40;;;;;;5074888;28;20028;-74
2021/11/24 05:02:59;;;;;;;46.20;22.85;;;-1.00;85.50;;;;;;5075072;28;20462;-75
2021/11/24 05:05:29;;;;;;;46.13;22.50;;;-1.00;85.00;;;;;;5074774;28;20496;-75
2021/11/24 05:07:55;;;;;;;48.78;22.80;;;-0.90;84.90;;;;;;5074948;28;20026;-78
2021/11/24 05:10:22;;;;;;;52.08;22.88;;;-0.90;84.90;;;;;;5058157;28;20032;-77
2021/11/24 05:12:48;;;;;;;47.88;21.02;;;-0.90;84.60;;;;;;5074911;28;20055;-77
2021/11/24 05:15:23;;;;;;;48.20;21.52;;;-0.80;84.40;;;;;;5074785;28;20059;-75
2021/11/24 05:17:54;;;;;;;47.85;22.58;;;-0.80;84.40;;;;;;5075022;28;20024;-75
2021/11/24 05:20:24;;;;;;;47.33;22.25;;;-0.80;84.20;;;;;;5091657;28;20504;-75
2021/11/24 05:22:52;;;;;;;38.35;19.17;;;-0.80;84.10;;;;;;5058362;28;20059;-75
2021/11/24 05:25:18;;;;;;;44.10;21.80;;;-0.80;84.00;;;;;;5092756;28;20095;-75
2021/11/24 05:27:44;;;;;;;41.65;19.88;;;-0.70;83.90;;;;;;5092384;28;20107;-75
2021/11/24 05:30:12;;;;;;;42.25;21.75;;;-0.60;83.60;;;;;;5074450;28;20487;-76
2021/11/24 05:32:38;;;;;;;36.65;20.13;;;-0.60;83.10;;;;;;5074628;28;20078;-75
2021/11/24 05:35:08;;;;;;;41.08;20.88;;;-0.60;82.70;;;;;;5077569;28;20030;-75
2021/11/24 05:37:34;;;;;;;37.38;19.70;;;-0.60;82.50;;;;;;5078635;28;20028;-75
2021/11/24 05:40:00;;;;;;;44.60;20.88;;;-0.60;82.50;;;;;;5078484;28;20414;-75
2021/11/24 05:42:27;;;;;;;43.25;20.65;;;-0.60;82.50;;;;;;5078382;28;20036;-75
2021/11/24 05:45:02;;;;;;;40.42;20.42;;;-0.60;82.50;;;;;;5096748;28;20061;-75
2021/11/24 05:50:13;;;;;;;39.45;19.77;;;-0.70;82.50;;;;;;5097062;28;20509;-75
2021/11/24 05:52:39;;;;;;;35.88;17.90;;;-0.70;82.60;;;;;;5078379;28;20047;-75
2021/11/24 05:55:06;;;;;;;35.08;18.52;;;-0.70;82.70;;;;;;5096537;28;20102;-75
2021/11/24 05:57:31;;;;;;;35.35;18.75;;;-0.70;82.90;;;;;;5096344;28;20032;-74
2021/11/24 05:59:57;;;;;;;32.38;16.83;;;-0.60;82.90;;;;;;5078222;28;20081;-74
2021/11/24 06:02:22;;;;;;;35.80;17.20;;;-0.60;82.80;;;;;;5077937;28;20128;-74
2021/11/24 06:04:48;;;;;;;33.35;17.83;;;-0.50;82.70;;;;;;5077985;28;20031;-75
2021/11/24 06:07:13;;;;;;;28.25;15.52;;;-0.60;82.40;;;;;;5077780;28;20369;-74
2021/11/24 06:09:39;;;;;;;31.15;17.85;;;-0.60;82.50;;;;;;5077606;28;20028;-77
2021/11/24 06:12:06;;;;;;;32.15;17.77;;;-0.60;82.50;;;;;;5077791;28;20114;-76
2021/11/24 06:14:34;;;;;;;33.85;18.15;;;-0.60;82.50;;;;;;5060772;28;20032;-77
2021/11/24 06:17:00;;;;;;;39.85;18.20;;;-0.60;82.40;;;;;;5077927;28;20039;-74
2021/11/24 06:19:26;;;;;;;37.30;19.65;;;-0.60;82.50;;;;;;5061215;28;20036;-77
2021/11/24 06:21:53;;;;;;;38.58;20.48;;;-0.60;82.40;;;;;;5060842;28;20127;-77
2021/11/24 06:24:18;;;;;;;43.47;21.90;;;-0.60;82.70;;;;;;5077866;28;20044;-76
2021/11/24 06:26:44;;;;;;;43.40;21.50;;;-0.60;83.10;;;;;;5077597;28;20356;-77
2021/11/24 06:29:10;;;;;;;42.65;20.48;;;-0.70;83.20;;;;;;5095620;28;20032;-76
2021/11/24 06:31:36;;;;;;;35.58;19.70;;;-0.70;83.10;;;;;;5095501;28;20039;-76
2021/11/24 06:34:02;;;;;;;37.33;19.80;;;-0.70;83.10;;;;;;5077065;28;20031;-76
2021/11/24 06:36:28;;;;;;;63.65;23.40;;;-0.60;83.40;;;;;;5077458;28;20148;-76
2021/11/24 06:38:54;;;;;;;35.75;19.35;;;-0.70;83.40;;;;;;5095693;28;20039;-77
2021/11/24 06:41:20;;;;;;;35.40;19.00;;;-0.70;83.80;;;;;;5077448;28;20032;-75
2021/11/24 06:43:46;;;;;;;38.65;19.60;;;-0.70;83.80;;;;;;5095388;28;20079;-75
2021/11/24 06:46:12;;;;;;;34.17;18.95;;;-0.60;83.50;;;;;;5076584;28;20438;-74
2021/11/24 06:48:37;;;;;;;35.05;17.95;;;-0.60;82.90;;;;;;5076715;28;20024;-76
2021/11/24 06:51:03;;;;;;;37.97;19.10;;;-0.60;82.60;;;;;;5095298;28;20472;-75
2021/11/24 06:53:29;;;;;;;33.83;18.27;;;-0.60;82.40;;;;;;5056031;28;20418;-75
2021/11/24 06:55:55;;;;;;;30.42;16.60;;;-0.60;82.30;;;;;;5056487;28;20028;-75
2021/11/24 06:58:21;;;;;;;33.45;18.52;;;-0.60;81.90;;;;;;5055990;28;20029;-75
2021/11/24 07:00:47;;;;;;;38.38;19.35;;;-0.60;81.80;;;;;;5056267;28;20471;-75
2021/11/24 07:03:12;;;;;;;39.22;19.05;;;-0.50;81.70;;;;;;5056942;28;20028;-75
2021/11/24 07:05:38;;;;;;;37.65;19.58;;;-0.60;81.50;;;;;;5056677;28;20468;-76
2021/11/24 07:08:05;;;;;;;35.55;17.40;;;-0.60;81.40;;;;;;5056691;28;20020;-76
2021/11/24 07:10:32;;;;;;;36.85;19.48;;;-0.50;81.30;;;;;;5040042;28;20063;-76
2021/11/24 07:12:59;;;;;;;41.42;19.65;;;-0.50;81.40;;;;;;5056549;28;20065;-76
2021/11/24 07:15:26;;;;;;;35.72;18.80;;;-0.50;81.50;;;;;;5056234;28;20024;-76
2021/11/24 07:17:53;;;;;;;40.97;19.25;;;-0.50;81.50;;;;;;5056821;28;20036;-76
2021/11/24 07:20:19;;;;;;;43.10;21.20;;;-0.50;81.60;;;;;;5056785;28;20186;-76
2021/11/24 07:22:45;;;;;;;39.97;19.35;;;-0.50;81.30;;;;;;5064909;28;20040;-76
2021/11/24 07:25:11;;;;;;;43.72;19.45;;;-0.40;81.30;;;;;;5073015;28;20036;-76
2021/11/24 07:27:37;;;;;;;35.65;18.55;;;-0.50;81.30;;;;;;5074384;28;20079;-76
2021/11/24 07:30:06;;;;;;;38.58;18.48;;;-0.40;81.30;;;;;;5074320;28;20477;-75
2021/11/24 07:32:32;;;;;;;34.08;18.38;;;-0.50;81.30;;;;;;5073139;28;20028;-76
2021/11/24 07:35:01;;;;;;;38.05;20.52;;;-0.40;81.30;;;;;;5076139;28;20029;-76
2021/11/24 07:37:27;;;;;;;48.85;21.65;;;-0.30;81.40;;;;;;5074335;28;20032;-77
2021/11/24 07:39:53;;;;;;;43.92;21.23;;;-0.30;81.30;;;;;;5074460;28;20028;-76
2021/11/24 07:42:19;;;;;;;37.40;19.83;;;-0.30;81.00;;;;;;5077521;28;20039;-74
2021/11/24 07:44:47;;;;;;;41.10;21.08;;;-0.30;81.10;;;;;;5063190;28;20047;-77
2021/11/24 07:47:13;;;;;;;36.53;18.98;;;-0.20;81.20;;;;;;5074852;28;20032;-76
2021/11/24 07:49:39;;;;;;;38.88;20.90;;;-0.20;81.10;;;;;;5090194;28;20051;-76
2021/11/24 07:52:05;;;;;;;37.17;20.33;;;-0.10;81.00;;;;;;5077710;28;20048;-76
2021/11/24 07:54:31;;;;;;;40.15;20.55;;;-0.10;81.10;;;;;;5077869;28;20028;-75
2021/11/24 07:56:59;;;;;;;41.97;19.88;;;-0.10;81.90;;;;;;5077471;28;20041;-75
2021/11/24 07:59:25;;;;;;;40.33;19.98;;;0.00;80.80;;;;;;5086236;28;20028;-75
2021/11/24 08:01:54;;;;;;;38.45;19.98;;;0.00;80.60;;;;;;5079834;28;20021;-76
2021/11/24 08:04:20;;;;;;;32.60;16.70;;;0.00;80.30;;;;;;5074111;28;20370;-75
2021/11/24 08:06:45;;;;;;;38.05;20.58;;;0.10;80.20;;;;;;5074041;28;20090;-76
2021/11/24 08:09:11;;;;;;;35.78;19.08;;;0.10;79.60;;;;;;5073182;28;20024;-76
2021/11/24 08:11:36;;;;;;;38.17;19.70;;;0.10;79.50;;;;;;5073387;28;20039;-76
2021/11/24 08:14:02;;;;;;;37.08;19.63;;;0.10;79.60;;;;;;5072717;28;20024;-76
2021/11/24 08:16:28;;;;;;;33.22;17.67;;;0.20;79.60;;;;;;5072686;28;20505;-76
2021/11/24 08:18:54;;;;;;;29.20;15.18;;;0.30;79.50;;;;;;5073507;28;20024;-77
2021/11/24 08:21:20;;;;;;;30.80;16.40;;;0.30;79.30;;;;;;5073706;28;20020;-76
2021/11/24 08:23:46;;;;;;;36.58;19.85;;;0.40;79.10;;;;;;5056299;28;20055;-77
2021/11/24 08:26:13;;;;;;;34.95;18.35;;;0.50;78.60;;;;;;5074691;28;20404;-76
2021/11/24 08:28:39;;;;;;;34.97;18.95;;;0.50;78.30;;;;;;5056178;28;20029;-75
2021/11/24 08:31:04;;;;;;;34.05;18.55;;;0.50;78.00;;;;;;5072597;28;20031;-75
2021/11/24 08:33:30;;;;;;;34.70;18.90;;;0.50;78.00;;;;;;5072205;28;20062;-75
2021/11/24 08:35:57;;;;;;;60.35;18.73;;;0.60;78.90;;;;;;5072140;28;20032;-78
2021/11/24 08:38:23;;;;;;;60.47;25.13;;;0.80;81.90;;;;;;5071527;28;20449;-78
2021/11/24 08:40:50;;;;;;;45.38;24.48;;;1.30;91.30;;;;;;5072081;28;20122;-78
2021/11/24 08:43:16;;;;;;;45.20;23.35;;;1.50;89.30;;;;;;5073019;28;20029;-79
2021/11/24 08:45:45;;;;;;;42.83;22.52;;;2.10;87.20;;;;;;5071868;28;20584;-78
2021/11/24 08:48:12;;;;;;;40.28;22.05;;;2.40;83.10;;;;;;5074764;28;20035;-79
2021/11/24 08:50:39;;;;;;;40.40;22.00;;;2.40;77.80;;;;;;5074803;28;20566;-78
2021/11/24 08:53:05;;;;;;;41.30;21.48;;;2.60;79.70;;;;;;5079067;28;20113;-75
2021/11/24 08:55:32;;;;;;;43.83;23.25;;;2.70;77.80;;;;;;5072015;28;20120;-75
2021/11/24 08:57:58;;;;;;;34.97;19.00;;;2.30;75.10;;;;;;5074235;28;20120;-76
2021/11/24 09:00:25;;;;;;;35.55;19.23;;;2.00;75.00;;;;;;5071673;28;20500;-76
2021/11/24 09:02:54;;;;;;;37.92;20.30;;;1.60;74.20;;;;;;5072052;28;20056;-76
2021/11/24 09:05:21;;;;;;;36.78;20.05;;;1.20;74.50;;;;;;5070774;28;20035;-77
2021/11/24 09:07:48;;;;;;;37.85;20.90;;;1.00;75.70;;;;;;5071884;28;20059;-76
2021/11/24 09:10:14;;;;;;;31.40;18.92;;;0.70;76.90;;;;;;5071621;28;20024;-76
2021/11/24 09:12:41;;;;;;;35.45;20.27;;;0.60;77.80;;;;;;5071603;28;20074;-76
2021/11/24 09:15:08;;;;;;;39.90;21.98;;;0.50;78.40;;;;;;5071427;28;20040;-76
2021/11/24 09:17:34;;;;;;;38.83;20.75;;;0.30;79.10;;;;;;5071182;28;20485;-77
2021/11/24 09:20:00;;;;;;;41.25;22.27;;;0.40;79.50;;;;;;5071710;28;20069;-77
2021/11/24 09:22:26;;;;;;;48.55;24.10;;;0.40;79.70;;;;;;5074100;28;20043;-76
2021/11/24 09:24:56;;;;;;;45.53;23.95;;;0.10;80.20;;;;;;5074149;28;20036;-77
2021/11/24 09:27:43;;;;;;;50.55;24.92;;;0.00;81.80;;;;;;5058394;28;20412;-76
2021/11/24 09:30:09;;;;;;;43.25;22.38;;;-0.10;82.50;;;;;;5074723;28;20461;-76
2021/11/24 09:32:35;;;;;;;49.47;24.88;;;0.10;82.60;;;;;;5057538;28;20060;-76
2021/11/24 09:35:10;;;;;;;44.08;23.60;;;0.30;82.30;;;;;;5092647;28;20063;-76
2021/11/24 09:37:37;;;;;;;43.92;22.45;;;0.20;82.10;;;;;;5074644;28;20044;-76
2021/11/24 09:40:05;;;;;;;40.42;21.60;;;0.30;81.90;;;;;;5074448;28;20024;-76
2021/11/24 09:42:33;;;;;;;49.60;24.60;;;0.40;81.60;;;;;;5074040;28;20039;-75
2021/11/24 09:45:00;;;;;;;49.30;24.05;;;0.40;81.40;;;;;;5074071;28;20395;-75
2021/11/24 09:47:26;;;;;;;46.17;23.75;;;0.50;81.10;;;;;;5092944;28;20052;-77
2021/11/24 09:49:57;;;;;;;45.88;24.08;;;0.60;80.90;;;;;;5074746;28;20054;-77
2021/11/24 09:52:27;;;;;;;54.08;26.00;;;0.50;80.70;;;;;;5093436;28;20036;-76
2021/11/24 09:54:54;;;;;;;49.78;25.58;;;0.40;81.00;;;;;;5077410;28;20103;-76
2021/11/24 09:57:27;;;;;;;54.47;25.33;;;0.40;81.00;;;;;;5098483;28;20373;-76
2021/11/24 09:59:54;;;;;;;44.22;23.42;;;0.60;81.20;;;;;;5078574;28;20089;-76
2021/11/24 10:02:21;;;;;;;48.85;24.27;;;0.60;81.00;;;;;;5093770;28;20358;-76
2021/11/24 10:04:50;;;;;;;48.95;24.60;;;0.80;80.60;;;;;;5057624;28;20028;-76
2021/11/24 10:07:18;;;;;;;42.63;22.58;;;0.90;80.40;;;;;;5092654;28;20476;-76
2021/11/24 10:09:46;;;;;;;53.35;26.10;;;1.00;80.00;;;;;;5074659;28;20020;-76
2021/11/24 10:12:13;;;;;;;54.92;28.02;;;0.90;79.20;;;;;;5092160;28;20039;-75
2021/11/24 10:14:41;;;;;;;60.42;29.75;;;1.00;79.40;;;;;;5075018;28;20021;-75
2021/11/24 10:17:20;;;;;;;56.92;28.98;;;1.10;79.60;;;;;;5073605;28;20028;-74
2021/11/24 10:20:11;;;;;;;59.08;28.15;;;1.10;79.30;;;;;;5058341;28;20483;-76
2021/11/24 10:22:39;;;;;;;62.90;29.85;;;1.20;79.10;;;;;;5077842;28;20125;-76
2021/11/24 10:25:11;;;;;;;63.70;31.33;;;1.30;78.50;;;;;;5078378;28;20024;-76
2021/11/24 10:27:47;;;;;;;54.97;27.40;;;1.40;78.10;;;;;;5077690;28;20495;-77
2021/11/24 10:30:26;;;;;;;59.58;30.30;;;1.40;78.30;;;;;;5095834;28;20031;-77
2021/11/24 10:32:52;;;;;;;69.18;29.75;;;1.30;78.40;;;;;;5095488;28;20174;-76
2021/11/24 10:35:28;;;;;;;56.65;27.90;;;1.30;78.70;;;;;;5077862;28;20516;-77
2021/11/24 10:38:17;;;;;;;62.05;30.90;;;1.40;78.70;;;;;;5077614;28;20485;-77
2021/11/24 10:40:46;;;;;;;59.85;28.58;;;1.50;78.50;;;;;;5077197;28;20040;-76
2021/11/24 10:43:13;;;;;;;57.50;28.08;;;1.60;78.30;;;;;;5077663;28;20027;-77
2021/11/24 10:45:50;;;;;;;62.80;29.85;;;1.60;77.90;;;;;;5077151;28;20024;-76
2021/11/24 10:48:34;;;;;;;58.35;28.42;;;1.40;78.30;;;;;;5078436;28;20040;-77
2021/11/24 10:51:21;;;;;;;73.78;35.55;;;1.50;78.30;;;;;;5077283;28;20028;-77
2021/11/24 10:54:04;;;;;;;66.47;32.63;;;1.50;78.80;;;;;;5076632;28;20133;-75
2021/11/24 10:56:31;;;;;;;73.35;33.67;;;1.60;78.90;;;;;;5095405;28;20032;-76
2021/11/24 10:59:19;;;;;;;68.43;31.80;;;1.80;78.90;;;;;;5077073;28;20054;-75
2021/11/24 11:01:45;;;;;;;62.75;31.95;;;1.60;78.70;;;;;;5094693;28;20092;-76
2021/11/24 11:04:12;;;;;;;65.30;31.65;;;1.80;78.70;;;;;;5076284;28;20031;-76
2021/11/24 11:06:40;;;;;;;63.47;30.75;;;2.00;78.40;;;;;;5060130;28;20024;-75
2021/11/24 11:09:06;;;;;;;60.55;30.38;;;2.00;77.20;;;;;;5076606;28;20024;-76
2021/11/24 11:11:35;;;;;;;62.35;31.15;;;1.70;77.40;;;;;;5076199;28;20381;-76
2021/11/24 11:14:16;;;;;;;64.32;32.35;;;1.80;77.60;;;;;;5094736;28;20516;-76
2021/11/24 11:16:47;;;;;;;66.18;31.92;;;1.80;77.60;;;;;;5076337;28;20121;-76
2021/11/24 11:19:40;;;;;;;58.00;31.23;;;1.80;78.10;;;;;;5094543;28;20024;-75
2021/11/24 11:22:14;;;;;;;57.80;29.55;;;1.80;78.40;;;;;;5093105;28;20027;-76
2021/11/24 11:24:40;;;;;;;65.57;31.73;;;1.90;78.40;;;;;;5077127;28;20036;-76
2021/11/24 11:27:05;;;;;;;63.60;32.83;;;1.90;78.40;;;;;;5076757;28;20498;-77
2021/11/24 11:29:31;;;;;;;57.50;29.40;;;1.90;78.90;;;;;;5075748;28;20107;-77
2021/11/24 11:31:58;;;;;;;55.60;30.15;;;2.00;79.10;;;;;;5074561;28;20036;-77
2021/11/24 11:34:27;;;;;;;62.80;32.20;;;2.00;78.90;;;;;;5059469;28;20028;-77
2021/11/24 11:36:52;;;;;;;58.55;30.10;;;1.90;79.20;;;;;;5059607;28;20032;-77
2021/11/24 11:39:18;;;;;;;65.50;32.72;;;2.00;79.00;;;;;;5076021;28;20035;-77
2021/11/24 11:41:44;;;;;;;63.53;33.22;;;1.80;79.40;;;;;;5094589;28;20035;-76
2021/11/24 11:44:17;;;;;;;68.55;33.83;;;1.70;80.40;;;;;;5089788;28;20390;-77
2021/11/24 11:46:50;;;;;;;63.20;32.72;;;1.70;81.00;;;;;;5059268;28;20082;-76
2021/11/24 11:49:25;;;;;;;63.95;32.40;;;1.70;81.10;;;;;;5059292;28;20115;-76
2021/11/24 11:51:54;;;;;;;55.85;30.02;;;1.50;81.20;;;;;;5074914;28;20031;-76
2021/11/24 11:54:32;;;;;;;64.82;31.92;;;1.60;81.30;;;;;;5093466;28;20032;-78
2021/11/24 11:57:03;;;;;;;59.20;31.30;;;1.60;81.60;;;;;;5093221;28;20044;-78
2021/11/24 11:59:34;;;;;;;58.65;29.45;;;1.70;81.80;;;;;;5059196;28;20380;-77
2021/11/24 12:02:04;;;;;;;51.90;28.17;;;1.60;81.80;;;;;;5059140;28;20111;-77
2021/11/24 12:04:50;;;;;;;55.38;29.48;;;1.60;82.00;;;;;;5075057;28;20095;-77
2021/11/24 12:07:19;;;;;;;;;;;1.70;82.20;;;;;;5093106;28;20080;-75
2021/11/24 12:09:54;;;;;;;52.08;26.15;;;1.80;81.70;;;;;;5075245;28;19904;-77
2021/11/24 12:12:30;;;;;;;48.35;26.13;;;1.80;81.30;;;;;;5093534;28;20115;-76
2021/11/24 12:15:20;;;;;;;52.55;26.98;;;1.80;81.40;;;;;;5075616;28;20043;-77
2021/11/24 12:17:57;;;;;;;48.28;27.17;;;1.70;81.40;;;;;;5075350;28;20032;-78
2021/11/24 12:20:26;;;;;;;47.45;25.67;;;1.80;81.60;;;;;;5075203;28;20024;-76
2021/11/24 12:22:57;;;;;;;49.80;26.77;;;1.70;81.40;;;;;;5075106;28;20071;-75
2021/11/24 12:27:51;;;;;;;40.45;24.05;;;1.60;82.10;;;;;;5093510;28;20440;-77
2021/11/24 12:33:05;;;;;;;45.92;25.02;;;2.00;82.10;;;;;;5093270;28;20051;-77
2021/11/24 12:35:37;;;;;;;47.55;26.33;;;2.10;81.70;;;;;;5070346;28;20062;-77
2021/11/24 12:38:05;;;;;;;46.03;24.38;;;2.30;81.20;;;;;;5072457;28;20062;-78
2021/11/24 12:40:34;;;;;;;47.40;26.13;;;2.30;80.80;;;;;;5074751;28;20098;-77
2021/11/24 12:43:03;;;;;;;47.05;25.55;;;2.40;80.70;;;;;;5092649;28;20073;-76